sensor_id;sensor_type;location;lat;lon;timestamp;P1;durP1;ratioP1;P2;durP2;ratioP2
63801;SDS011;49949;43.060;25.624;2023-07-31T00:00:13;13.93;;;3.15;;
63801;SDS011;49949;43.060;25.624;2023-07-31T00:02:39;7.25;;;2.78;;
63801;SDS011;49949;43.060;25.624;2023-07-31T00:05:05;3.72;;;2.17;;
63801;SDS011;49949;43.060;25.624;2023-07-31T00:07:31;12.23;;;2.67;;
63801;SDS011;49949;43.060;25.624;2023-07-31T00:09:57;29.55;;;14.65;;
63801;SDS011;49949;43.060;25.624;2023-07-31T00:12:23;16.67;;;7.82;;
63801;SDS011;49949;43.060;25.624;2023-07-31T00:14:49;9.88;;;3.22;;
63801;SDS011;49949;43.060;25.624;2023-07-31T00:17:16;4.63;;;3.60;;
63801;SDS011;49949;43.060;25.624;2023-07-31T00:19:43;7.72;;;2.60;;
63801;SDS011;49949;43.060;25.624;2023-07-31T00:22:11;12.13;;;3.22;;
63801;SDS011;49949;43.060;25.624;2023-07-31T00:24:36;4.93;;;2.75;;
63801;SDS011;49949;43.060;25.624;2023-07-31T00:27:02;2.88;;;2.58;;
63801;SDS011;49949;43.060;25.624;2023-07-31T00:29:28;4.20;;;2.80;;
63801;SDS011;49949;43.060;25.624;2023-07-31T00:31:54;2.72;;;2.42;;
63801;SDS011;49949;43.060;25.624;2023-07-31T00:34:19;5.88;;;2.67;;
63801;SDS011;49949;43.060;25.624;2023-07-31T00:36:45;3.90;;;2.75;;
63801;SDS011;49949;43.060;25.624;2023-07-31T00:39:12;4.18;;;2.33;;
63801;SDS011;49949;43.060;25.624;2023-07-31T00:41:38;3.08;;;2.88;;
63801;SDS011;49949;43.060;25.624;2023-07-31T00:44:04;5.07;;;2.58;;
63801;SDS011;49949;43.060;25.624;2023-07-31T00:46:30;4.68;;;2.78;;
63801;SDS011;49949;43.060;25.624;2023-07-31T00:48:56;6.88;;;2.40;;
63801;SDS011;49949;43.060;25.624;2023-07-31T00:51:22;6.85;;;3.08;;
63801;SDS011;49949;43.060;25.624;2023-07-31T00:53:47;8.48;;;3.33;;
63801;SDS011;49949;43.060;25.624;2023-07-31T00:56:13;2.83;;;2.63;;
63801;SDS011;49949;43.060;25.624;2023-07-31T00:58:40;5.45;;;2.92;;
63801;SDS011;49949;43.060;25.624;2023-07-31T01:01:06;3.60;;;2.58;;
63801;SDS011;49949;43.060;25.624;2023-07-31T01:03:31;4.53;;;2.80;;
63801;SDS011;49949;43.060;25.624;2023-07-31T01:11:28;12.13;;;3.30;;
63801;SDS011;49949;43.060;25.624;2023-07-31T01:13:55;10.95;;;3.28;;
63801;SDS011;49949;43.060;25.624;2023-07-31T01:16:21;7.63;;;3.20;;
63801;SDS011;49949;43.060;25.624;2023-07-31T01:18:47;4.70;;;2.75;;
63801;SDS011;49949;43.060;25.624;2023-07-31T01:26:28;3.25;;;2.97;;
63801;SDS011;49949;43.060;25.624;2023-07-31T01:31:35;4.30;;;3.25;;
63801;SDS011;49949;43.060;25.624;2023-07-31T01:34:04;3.90;;;3.25;;
63801;SDS011;49949;43.060;25.624;2023-07-31T01:36:30;4.55;;;3.30;;
63801;SDS011;49949;43.060;25.624;2023-07-31T01:39:00;5.25;;;3.08;;
63801;SDS011;49949;43.060;25.624;2023-07-31T01:41:26;3.80;;;3.10;;
63801;SDS011;49949;43.060;25.624;2023-07-31T01:43:52;9.18;;;3.72;;
63801;SDS011;49949;43.060;25.624;2023-07-31T01:46:18;3.50;;;3.30;;
63801;SDS011;49949;43.060;25.624;2023-07-31T01:48:44;4.65;;;3.65;;
63801;SDS011;49949;43.060;25.624;2023-07-31T01:51:09;5.40;;;4.00;;
63801;SDS011;49949;43.060;25.624;2023-07-31T01:53:35;7.45;;;4.85;;
63801;SDS011;49949;43.060;25.624;2023-07-31T01:56:01;7.20;;;4.40;;
63801;SDS011;49949;43.060;25.624;2023-07-31T01:58:26;5.18;;;4.68;;
63801;SDS011;49949;43.060;25.624;2023-07-31T02:00:52;5.13;;;4.63;;
63801;SDS011;49949;43.060;25.624;2023-07-31T02:03:18;6.43;;;5.22;;
63801;SDS011;49949;43.060;25.624;2023-07-31T02:05:44;10.93;;;5.80;;
63801;SDS011;49949;43.060;25.624;2023-07-31T02:08:11;7.32;;;6.18;;
63801;SDS011;49949;43.060;25.624;2023-07-31T02:10:36;9.30;;;6.47;;
63801;SDS011;49949;43.060;25.624;2023-07-31T02:13:02;7.63;;;6.38;;
63801;SDS011;49949;43.060;25.624;2023-07-31T02:15:29;6.82;;;6.20;;
63801;SDS011;49949;43.060;25.624;2023-07-31T02:17:55;6.55;;;4.85;;
63801;SDS011;49949;43.060;25.624;2023-07-31T02:20:21;5.82;;;5.30;;
63801;SDS011;49949;43.060;25.624;2023-07-31T02:22:47;6.55;;;5.07;;
63801;SDS011;49949;43.060;25.624;2023-07-31T02:25:12;5.50;;;4.97;;
63801;SDS011;49949;43.060;25.624;2023-07-31T02:27:38;7.85;;;5.82;;
63801;SDS011;49949;43.060;25.624;2023-07-31T02:30:04;6.82;;;5.97;;
63801;SDS011;49949;43.060;25.624;2023-07-31T02:32:30;8.80;;;6.63;;
63801;SDS011;49949;43.060;25.624;2023-07-31T02:34:55;13.52;;;6.32;;
63801;SDS011;49949;43.060;25.624;2023-07-31T02:37:21;7.65;;;6.00;;
63801;SDS011;49949;43.060;25.624;2023-07-31T02:39:47;8.55;;;6.03;;
63801;SDS011;49949;43.060;25.624;2023-07-31T02:42:13;7.10;;;6.40;;
63801;SDS011;49949;43.060;25.624;2023-07-31T02:44:39;7.00;;;6.30;;
63801;SDS011;49949;43.060;25.624;2023-07-31T02:47:05;10.20;;;6.57;;
63801;SDS011;49949;43.060;25.624;2023-07-31T02:49:30;7.55;;;6.85;;
63801;SDS011;49949;43.060;25.624;2023-07-31T02:51:56;12.32;;;7.57;;
63801;SDS011;49949;43.060;25.624;2023-07-31T02:54:22;14.13;;;8.50;;
63801;SDS011;49949;43.060;25.624;2023-07-31T02:56:47;9.48;;;8.02;;
63801;SDS011;49949;43.060;25.624;2023-07-31T02:59:14;14.10;;;9.52;;
63801;SDS011;49949;43.060;25.624;2023-07-31T03:01:40;11.70;;;10.38;;
63801;SDS011;49949;43.060;25.624;2023-07-31T03:04:06;12.52;;;11.25;;
63801;SDS011;49949;43.060;25.624;2023-07-31T03:06:32;13.65;;;12.35;;
63801;SDS011;49949;43.060;25.624;2023-07-31T03:08:58;16.02;;;14.45;;
63801;SDS011;49949;43.060;25.624;2023-07-31T03:11:23;21.70;;;16.42;;
63801;SDS011;49949;43.060;25.624;2023-07-31T03:13:49;13.48;;;11.80;;
63801;SDS011;49949;43.060;25.624;2023-07-31T03:16:15;14.52;;;12.05;;
63801;SDS011;49949;43.060;25.624;2023-07-31T03:18:40;12.52;;;11.23;;
63801;SDS011;49949;43.060;25.624;2023-07-31T03:21:06;13.88;;;12.38;;
63801;SDS011;49949;43.060;25.624;2023-07-31T03:23:32;14.35;;;12.85;;
63801;SDS011;49949;43.060;25.624;2023-07-31T03:25:58;17.55;;;13.32;;
63801;SDS011;49949;43.060;25.624;2023-07-31T03:28:28;35.33;;;29.25;;
63801;SDS011;49949;43.060;25.624;2023-07-31T03:30:54;23.88;;;18.80;;
63801;SDS011;49949;43.060;25.624;2023-07-31T03:33:20;15.48;;;14.00;;
63801;SDS011;49949;43.060;25.624;2023-07-31T03:35:46;16.42;;;14.23;;
63801;SDS011;49949;43.060;25.624;2023-07-31T03:38:12;21.67;;;19.40;;
63801;SDS011;49949;43.060;25.624;2023-07-31T03:40:38;20.48;;;17.35;;
63801;SDS011;49949;43.060;25.624;2023-07-31T03:43:04;16.60;;;14.90;;
63801;SDS011;49949;43.060;25.624;2023-07-31T03:45:30;24.40;;;14.32;;
63801;SDS011;49949;43.060;25.624;2023-07-31T03:47:56;15.18;;;12.10;;
63801;SDS011;49949;43.060;25.624;2023-07-31T03:50:22;18.10;;;12.90;;
63801;SDS011;49949;43.060;25.624;2023-07-31T03:52:50;15.48;;;13.88;;
63801;SDS011;49949;43.060;25.624;2023-07-31T03:55:17;15.48;;;13.88;;
63801;SDS011;49949;43.060;25.624;2023-07-31T03:57:43;15.75;;;13.90;;
63801;SDS011;49949;43.060;25.624;2023-07-31T04:00:09;17.77;;;15.82;;
63801;SDS011;49949;43.060;25.624;2023-07-31T04:02:35;18.88;;;16.98;;
63801;SDS011;49949;43.060;25.624;2023-07-31T04:05:01;18.92;;;16.90;;
63801;SDS011;49949;43.060;25.624;2023-07-31T04:07:27;20.70;;;16.05;;
63801;SDS011;49949;43.060;25.624;2023-07-31T04:09:52;22.40;;;17.83;;
63801;SDS011;49949;43.060;25.624;2023-07-31T04:12:18;28.83;;;18.38;;
63801;SDS011;49949;43.060;25.624;2023-07-31T04:14:45;18.58;;;16.77;;
63801;SDS011;49949;43.060;25.624;2023-07-31T04:17:11;19.88;;;17.40;;
63801;SDS011;49949;43.060;25.624;2023-07-31T04:19:36;22.35;;;17.75;;
63801;SDS011;49949;43.060;25.624;2023-07-31T04:22:03;20.90;;;18.17;;
63801;SDS011;49949;43.060;25.624;2023-07-31T04:24:28;24.15;;;19.02;;
63801;SDS011;49949;43.060;25.624;2023-07-31T04:26:54;21.20;;;17.73;;
63801;SDS011;49949;43.060;25.624;2023-07-31T04:29:20;27.23;;;18.70;;
63801;SDS011;49949;43.060;25.624;2023-07-31T04:31:47;22.55;;;19.00;;
63801;SDS011;49949;43.060;25.624;2023-07-31T04:34:13;26.15;;;19.23;;
63801;SDS011;49949;43.060;25.624;2023-07-31T04:36:39;18.48;;;16.25;;
63801;SDS011;49949;43.060;25.624;2023-07-31T04:39:05;17.23;;;14.85;;
63801;SDS011;49949;43.060;25.624;2023-07-31T04:41:31;20.73;;;16.42;;
63801;SDS011;49949;43.060;25.624;2023-07-31T04:44:00;18.80;;;15.40;;
63801;SDS011;49949;43.060;25.624;2023-07-31T04:46:28;17.48;;;13.80;;
63801;SDS011;49949;43.060;25.624;2023-07-31T04:48:54;20.13;;;15.05;;
63801;SDS011;49949;43.060;25.624;2023-07-31T04:51:20;20.98;;;15.23;;
63801;SDS011;49949;43.060;25.624;2023-07-31T04:53:46;13.57;;;11.15;;
63801;SDS011;49949;43.060;25.624;2023-07-31T04:56:12;16.45;;;12.18;;
63801;SDS011;49949;43.060;25.624;2023-07-31T04:58:39;18.08;;;11.90;;
63801;SDS011;49949;43.060;25.624;2023-07-31T05:01:04;19.00;;;12.52;;
63801;SDS011;49949;43.060;25.624;2023-07-31T05:03:30;13.77;;;12.38;;
63801;SDS011;49949;43.060;25.624;2023-07-31T05:05:56;12.57;;;10.60;;
63801;SDS011;49949;43.060;25.624;2023-07-31T05:08:21;12.63;;;11.23;;
63801;SDS011;49949;43.060;25.624;2023-07-31T05:10:47;16.30;;;10.95;;
63801;SDS011;49949;43.060;25.624;2023-07-31T05:13:13;17.25;;;9.27;;
63801;SDS011;49949;43.060;25.624;2023-07-31T05:15:40;16.48;;;9.52;;
63801;SDS011;49949;43.060;25.624;2023-07-31T05:18:06;12.18;;;10.57;;
63801;SDS011;49949;43.060;25.624;2023-07-31T05:20:32;17.88;;;11.25;;
63801;SDS011;49949;43.060;25.624;2023-07-31T05:22:58;15.23;;;9.50;;
63801;SDS011;49949;43.060;25.624;2023-07-31T05:25:23;14.65;;;10.88;;
63801;SDS011;49949;43.060;25.624;2023-07-31T05:27:49;13.07;;;10.27;;
63801;SDS011;49949;43.060;25.624;2023-07-31T05:30:15;13.63;;;10.95;;
63801;SDS011;49949;43.060;25.624;2023-07-31T05:32:44;15.63;;;11.43;;
63801;SDS011;49949;43.060;25.624;2023-07-31T05:35:09;15.05;;;11.98;;
63801;SDS011;49949;43.060;25.624;2023-07-31T05:37:35;15.25;;;12.73;;
63801;SDS011;49949;43.060;25.624;2023-07-31T05:40:01;20.38;;;14.43;;
63801;SDS011;49949;43.060;25.624;2023-07-31T05:42:27;19.00;;;14.40;;
63801;SDS011;49949;43.060;25.624;2023-07-31T05:44:52;13.20;;;11.90;;
63801;SDS011;49949;43.060;25.624;2023-07-31T05:47:18;19.58;;;13.75;;
63801;SDS011;49949;43.060;25.624;2023-07-31T05:49:44;14.25;;;11.52;;
63801;SDS011;49949;43.060;25.624;2023-07-31T05:52:09;16.73;;;13.82;;
63801;SDS011;49949;43.060;25.624;2023-07-31T05:54:35;18.02;;;13.40;;
63801;SDS011;49949;43.060;25.624;2023-07-31T05:57:01;52.60;;;15.75;;
63801;SDS011;49949;43.060;25.624;2023-07-31T05:59:26;29.88;;;14.43;;
63801;SDS011;49949;43.060;25.624;2023-07-31T06:01:52;33.33;;;17.13;;
63801;SDS011;49949;43.060;25.624;2023-07-31T06:04:18;34.22;;;18.80;;
63801;SDS011;49949;43.060;25.624;2023-07-31T06:06:44;27.02;;;19.02;;
63801;SDS011;49949;43.060;25.624;2023-07-31T06:09:09;28.63;;;16.73;;
63801;SDS011;49949;43.060;25.624;2023-07-31T06:11:36;21.17;;;14.15;;
63801;SDS011;49949;43.060;25.624;2023-07-31T06:14:02;19.70;;;11.13;;
63801;SDS011;49949;43.060;25.624;2023-07-31T06:16:28;14.75;;;10.40;;
63801;SDS011;49949;43.060;25.624;2023-07-31T06:18:53;15.10;;;9.70;;
63801;SDS011;49949;43.060;25.624;2023-07-31T06:21:19;14.40;;;9.32;;
63801;SDS011;49949;43.060;25.624;2023-07-31T06:23:45;12.57;;;8.20;;
63801;SDS011;49949;43.060;25.624;2023-07-31T06:26:11;11.90;;;8.15;;
63801;SDS011;49949;43.060;25.624;2023-07-31T06:28:36;11.70;;;7.63;;
63801;SDS011;49949;43.060;25.624;2023-07-31T06:31:02;14.85;;;9.07;;
63801;SDS011;49949;43.060;25.624;2023-07-31T06:33:28;19.25;;;8.98;;
63801;SDS011;49949;43.060;25.624;2023-07-31T06:35:53;14.90;;;8.57;;
63801;SDS011;49949;43.060;25.624;2023-07-31T06:38:21;19.98;;;8.93;;
63801;SDS011;49949;43.060;25.624;2023-07-31T06:40:49;16.88;;;8.57;;
63801;SDS011;49949;43.060;25.624;2023-07-31T06:43:14;11.88;;;8.85;;
63801;SDS011;49949;43.060;25.624;2023-07-31T06:45:40;24.45;;;10.32;;
63801;SDS011;49949;43.060;25.624;2023-07-31T06:48:06;38.97;;;11.65;;
63801;SDS011;49949;43.060;25.624;2023-07-31T06:50:32;14.95;;;8.85;;
63801;SDS011;49949;43.060;25.624;2023-07-31T06:52:57;19.88;;;7.78;;
63801;SDS011;49949;43.060;25.624;2023-07-31T06:55:23;8.45;;;7.55;;
63801;SDS011;49949;43.060;25.624;2023-07-31T06:57:53;14.95;;;8.35;;
63801;SDS011;49949;43.060;25.624;2023-07-31T07:00:20;8.15;;;7.35;;
63801;SDS011;49949;43.060;25.624;2023-07-31T07:02:47;14.50;;;8.38;;
63801;SDS011;49949;43.060;25.624;2023-07-31T07:05:14;9.48;;;8.43;;
63801;SDS011;49949;43.060;25.624;2023-07-31T07:07:40;10.77;;;8.00;;
63801;SDS011;49949;43.060;25.624;2023-07-31T07:10:06;9.20;;;7.55;;
63801;SDS011;49949;43.060;25.624;2023-07-31T07:12:32;14.25;;;7.72;;
63801;SDS011;49949;43.060;25.624;2023-07-31T07:14:59;12.90;;;8.55;;
63801;SDS011;49949;43.060;25.624;2023-07-31T07:17:25;23.52;;;10.30;;
63801;SDS011;49949;43.060;25.624;2023-07-31T07:19:52;21.17;;;8.57;;
63801;SDS011;49949;43.060;25.624;2023-07-31T07:22:18;9.85;;;8.23;;
63801;SDS011;49949;43.060;25.624;2023-07-31T07:24:44;18.20;;;7.80;;
63801;SDS011;49949;43.060;25.624;2023-07-31T07:27:10;11.40;;;8.10;;
63801;SDS011;49949;43.060;25.624;2023-07-31T07:29:35;13.35;;;7.75;;
63801;SDS011;49949;43.060;25.624;2023-07-31T07:32:02;45.38;;;9.98;;
63801;SDS011;49949;43.060;25.624;2023-07-31T07:34:28;13.75;;;7.97;;
63801;SDS011;49949;43.060;25.624;2023-07-31T07:36:54;13.70;;;8.27;;
63801;SDS011;49949;43.060;25.624;2023-07-31T07:39:20;11.68;;;7.75;;
63801;SDS011;49949;43.060;25.624;2023-07-31T07:41:46;11.05;;;7.38;;
63801;SDS011;49949;43.060;25.624;2023-07-31T07:44:12;18.58;;;7.82;;
63801;SDS011;49949;43.060;25.624;2023-07-31T07:46:38;20.38;;;7.53;;
63801;SDS011;49949;43.060;25.624;2023-07-31T07:49:04;14.18;;;7.70;;
63801;SDS011;49949;43.060;25.624;2023-07-31T07:51:30;8.32;;;6.00;;
63801;SDS011;49949;43.060;25.624;2023-07-31T07:53:57;14.68;;;7.03;;
63801;SDS011;49949;43.060;25.624;2023-07-31T07:56:23;7.00;;;5.63;;
63801;SDS011;49949;43.060;25.624;2023-07-31T07:58:50;15.95;;;6.07;;
63801;SDS011;49949;43.060;25.624;2023-07-31T08:01:16;9.95;;;6.20;;
63801;SDS011;49949;43.060;25.624;2023-07-31T08:03:42;7.55;;;5.53;;
63801;SDS011;49949;43.060;25.624;2023-07-31T08:06:08;12.07;;;6.32;;
63801;SDS011;49949;43.060;25.624;2023-07-31T08:08:34;12.80;;;6.07;;
63801;SDS011;49949;43.060;25.624;2023-07-31T08:11:01;11.50;;;5.80;;
63801;SDS011;49949;43.060;25.624;2023-07-31T08:13:26;9.60;;;5.90;;
63801;SDS011;49949;43.060;25.624;2023-07-31T08:15:52;7.95;;;5.53;;
63801;SDS011;49949;43.060;25.624;2023-07-31T08:18:18;15.35;;;5.97;;
63801;SDS011;49949;43.060;25.624;2023-07-31T08:20:44;11.68;;;6.72;;
63801;SDS011;49949;43.060;25.624;2023-07-31T08:23:10;7.75;;;5.57;;
63801;SDS011;49949;43.060;25.624;2023-07-31T08:25:35;5.82;;;5.22;;
63801;SDS011;49949;43.060;25.624;2023-07-31T08:28:02;6.43;;;5.30;;
63801;SDS011;49949;43.060;25.624;2023-07-31T08:30:28;8.77;;;5.72;;
63801;SDS011;49949;43.060;25.624;2023-07-31T08:32:54;7.53;;;5.15;;
63801;SDS011;49949;43.060;25.624;2023-07-31T08:35:20;9.27;;;6.20;;
63801;SDS011;49949;43.060;25.624;2023-07-31T08:37:45;9.23;;;5.35;;
63801;SDS011;49949;43.060;25.624;2023-07-31T08:40:11;8.52;;;6.07;;
63801;SDS011;49949;43.060;25.624;2023-07-31T08:42:49;6.57;;;5.30;;
63801;SDS011;49949;43.060;25.624;2023-07-31T08:45:17;6.28;;;4.97;;
63801;SDS011;49949;43.060;25.624;2023-07-31T08:47:45;5.68;;;5.10;;
63801;SDS011;49949;43.060;25.624;2023-07-31T08:50:13;5.75;;;5.20;;
63801;SDS011;49949;43.060;25.624;2023-07-31T08:52:39;6.47;;;4.93;;
63801;SDS011;49949;43.060;25.624;2023-07-31T08:55:06;5.38;;;4.55;;
63801;SDS011;49949;43.060;25.624;2023-07-31T08:57:34;9.02;;;5.45;;
63801;SDS011;49949;43.060;25.624;2023-07-31T09:00:02;6.00;;;5.25;;
63801;SDS011;49949;43.060;25.624;2023-07-31T09:02:31;5.45;;;4.95;;
63801;SDS011;49949;43.060;25.624;2023-07-31T09:05:06;9.35;;;5.15;;
63801;SDS011;49949;43.060;25.624;2023-07-31T09:07:35;6.63;;;4.75;;
63801;SDS011;49949;43.060;25.624;2023-07-31T09:10:02;7.57;;;4.65;;
63801;SDS011;49949;43.060;25.624;2023-07-31T09:12:28;18.23;;;4.95;;
63801;SDS011;49949;43.060;25.624;2023-07-31T09:14:55;10.95;;;4.07;;
63801;SDS011;49949;43.060;25.624;2023-07-31T09:19:57;8.27;;;5.07;;
63801;SDS011;49949;43.060;25.624;2023-07-31T09:22:37;12.50;;;3.83;;
63801;SDS011;49949;43.060;25.624;2023-07-31T09:25:22;15.55;;;4.20;;
63801;SDS011;49949;43.060;25.624;2023-07-31T09:27:49;5.28;;;3.88;;
63801;SDS011;49949;43.060;25.624;2023-07-31T09:30:19;8.75;;;4.32;;
63801;SDS011;49949;43.060;25.624;2023-07-31T09:32:47;5.50;;;3.40;;
63801;SDS011;49949;43.060;25.624;2023-07-31T09:35:18;3.78;;;3.08;;
63801;SDS011;49949;43.060;25.624;2023-07-31T09:37:53;4.80;;;3.75;;
63801;SDS011;49949;43.060;25.624;2023-07-31T09:40:39;19.08;;;6.35;;
63801;SDS011;49949;43.060;25.624;2023-07-31T09:43:20;6.20;;;3.95;;
63801;SDS011;49949;43.060;25.624;2023-07-31T09:45:47;3.80;;;3.50;;
63801;SDS011;49949;43.060;25.624;2023-07-31T09:48:14;5.72;;;3.55;;
63801;SDS011;49949;43.060;25.624;2023-07-31T09:50:42;7.38;;;3.72;;
63801;SDS011;49949;43.060;25.624;2023-07-31T09:53:10;13.48;;;5.10;;
63801;SDS011;49949;43.060;25.624;2023-07-31T09:55:36;4.72;;;3.33;;
63801;SDS011;49949;43.060;25.624;2023-07-31T09:58:03;3.97;;;3.38;;
63801;SDS011;49949;43.060;25.624;2023-07-31T10:00:31;3.40;;;3.08;;
63801;SDS011;49949;43.060;25.624;2023-07-31T10:03:00;7.35;;;3.30;;
63801;SDS011;49949;43.060;25.624;2023-07-31T10:05:49;4.35;;;3.20;;
63801;SDS011;49949;43.060;25.624;2023-07-31T10:08:16;4.78;;;3.97;;
63801;SDS011;49949;43.060;25.624;2023-07-31T10:10:45;6.50;;;3.20;;
63801;SDS011;49949;43.060;25.624;2023-07-31T10:13:11;8.30;;;3.53;;
63801;SDS011;49949;43.060;25.624;2023-07-31T10:15:38;7.93;;;3.28;;
63801;SDS011;49949;43.060;25.624;2023-07-31T10:18:06;6.35;;;3.67;;
63801;SDS011;49949;43.060;25.624;2023-07-31T10:20:32;6.32;;;2.92;;
63801;SDS011;49949;43.060;25.624;2023-07-31T10:22:58;3.30;;;3.00;;
63801;SDS011;49949;43.060;25.624;2023-07-31T10:25:25;4.75;;;3.25;;
63801;SDS011;49949;43.060;25.624;2023-07-31T10:27:52;3.25;;;2.95;;
63801;SDS011;49949;43.060;25.624;2023-07-31T10:30:20;5.20;;;3.08;;
63801;SDS011;49949;43.060;25.624;2023-07-31T10:32:50;21.30;;;3.30;;
63801;SDS011;49949;43.060;25.624;2023-07-31T10:35:18;5.28;;;3.72;;
63801;SDS011;49949;43.060;25.624;2023-07-31T10:37:44;6.72;;;4.57;;
63801;SDS011;49949;43.060;25.624;2023-07-31T10:40:11;32.53;;;4.18;;
63801;SDS011;49949;43.060;25.624;2023-07-31T10:42:50;4.30;;;3.33;;
63801;SDS011;49949;43.060;25.624;2023-07-31T10:45:32;7.15;;;3.60;;
63801;SDS011;49949;43.060;25.624;2023-07-31T10:48:07;14.05;;;4.97;;
63801;SDS011;49949;43.060;25.624;2023-07-31T10:50:38;11.40;;;4.73;;
63801;SDS011;49949;43.060;25.624;2023-07-31T10:53:10;9.98;;;4.15;;
63801;SDS011;49949;43.060;25.624;2023-07-31T10:55:51;6.22;;;3.65;;
63801;SDS011;49949;43.060;25.624;2023-07-31T10:58:18;7.43;;;3.40;;
63801;SDS011;49949;43.060;25.624;2023-07-31T11:00:48;4.07;;;3.70;;
63801;SDS011;49949;43.060;25.624;2023-07-31T11:03:15;3.97;;;3.58;;
63801;SDS011;49949;43.060;25.624;2023-07-31T11:05:48;3.90;;;3.60;;
63801;SDS011;49949;43.060;25.624;2023-07-31T11:08:27;4.05;;;3.60;;
63801;SDS011;49949;43.060;25.624;2023-07-31T11:13:33;18.50;;;3.88;;
63801;SDS011;49949;43.060;25.624;2023-07-31T11:15:59;9.70;;;3.78;;
63801;SDS011;49949;43.060;25.624;2023-07-31T11:18:28;19.05;;;3.95;;
63801;SDS011;49949;43.060;25.624;2023-07-31T11:20:53;19.08;;;4.32;;
63801;SDS011;49949;43.060;25.624;2023-07-31T11:23:20;36.78;;;5.38;;
63801;SDS011;49949;43.060;25.624;2023-07-31T11:25:46;3.85;;;3.33;;
63801;SDS011;49949;43.060;25.624;2023-07-31T11:28:13;3.40;;;2.83;;
63801;SDS011;49949;43.060;25.624;2023-07-31T11:30:40;3.85;;;3.50;;
63801;SDS011;49949;43.060;25.624;2023-07-31T11:33:08;11.45;;;3.55;;
63801;SDS011;49949;43.060;25.624;2023-07-31T11:35:35;3.85;;;3.35;;
63801;SDS011;49949;43.060;25.624;2023-07-31T11:38:10;4.55;;;2.60;;
63801;SDS011;49949;43.060;25.624;2023-07-31T11:40:53;13.45;;;3.92;;
63801;SDS011;49949;43.060;25.624;2023-07-31T11:43:19;10.57;;;3.75;;
63801;SDS011;49949;43.060;25.624;2023-07-31T11:45:55;5.32;;;3.03;;
63801;SDS011;49949;43.060;25.624;2023-07-31T11:48:33;2.97;;;2.78;;
63801;SDS011;49949;43.060;25.624;2023-07-31T11:51:01;16.98;;;4.78;;
63801;SDS011;49949;43.060;25.624;2023-07-31T11:53:33;15.15;;;3.47;;
63801;SDS011;49949;43.060;25.624;2023-07-31T11:56:00;38.50;;;4.45;;
63801;SDS011;49949;43.060;25.624;2023-07-31T11:58:29;24.30;;;4.05;;
63801;SDS011;49949;43.060;25.624;2023-07-31T12:01:00;10.30;;;3.90;;
63801;SDS011;49949;43.060;25.624;2023-07-31T12:03:26;15.18;;;4.95;;
63801;SDS011;49949;43.060;25.624;2023-07-31T12:05:52;10.38;;;3.53;;
63801;SDS011;49949;43.060;25.624;2023-07-31T12:08:20;35.88;;;6.72;;
63801;SDS011;49949;43.060;25.624;2023-07-31T12:10:49;30.20;;;4.32;;
63801;SDS011;49949;43.060;25.624;2023-07-31T12:13:20;14.35;;;4.85;;
63801;SDS011;49949;43.060;25.624;2023-07-31T12:15:55;28.02;;;5.40;;
63801;SDS011;49949;43.060;25.624;2023-07-31T12:18:22;9.07;;;3.80;;
63801;SDS011;49949;43.060;25.624;2023-07-31T12:21:08;5.13;;;3.30;;
63801;SDS011;49949;43.060;25.624;2023-07-31T12:23:37;19.88;;;5.60;;
63801;SDS011;49949;43.060;25.624;2023-07-31T12:28:30;14.75;;;3.72;;
63801;SDS011;49949;43.060;25.624;2023-07-31T12:30:59;4.85;;;3.08;;
63801;SDS011;49949;43.060;25.624;2023-07-31T12:33:32;17.20;;;3.72;;
63801;SDS011;49949;43.060;25.624;2023-07-31T12:36:02;25.95;;;4.43;;
63801;SDS011;49949;43.060;25.624;2023-07-31T12:38:29;25.02;;;4.18;;
63801;SDS011;49949;43.060;25.624;2023-07-31T12:40:55;35.63;;;4.63;;
63801;SDS011;49949;43.060;25.624;2023-07-31T12:43:21;32.47;;;4.65;;
63801;SDS011;49949;43.060;25.624;2023-07-31T12:45:46;9.68;;;4.00;;
63801;SDS011;49949;43.060;25.624;2023-07-31T12:48:12;17.45;;;3.80;;
63801;SDS011;49949;43.060;25.624;2023-07-31T12:50:38;9.55;;;3.85;;
63801;SDS011;49949;43.060;25.624;2023-07-31T12:53:04;15.45;;;4.57;;
63801;SDS011;49949;43.060;25.624;2023-07-31T12:55:31;18.20;;;3.80;;
63801;SDS011;49949;43.060;25.624;2023-07-31T12:58:00;32.38;;;4.40;;
63801;SDS011;49949;43.060;25.624;2023-07-31T13:00:26;32.10;;;4.35;;
63801;SDS011;49949;43.060;25.624;2023-07-31T13:02:51;11.20;;;4.15;;
63801;SDS011;49949;43.060;25.624;2023-07-31T13:05:17;18.10;;;3.88;;
63801;SDS011;49949;43.060;25.624;2023-07-31T13:07:45;10.25;;;3.85;;
63801;SDS011;49949;43.060;25.624;2023-07-31T13:10:11;7.25;;;3.78;;
63801;SDS011;49949;43.060;25.624;2023-07-31T13:12:36;20.27;;;5.93;;
63801;SDS011;49949;43.060;25.624;2023-07-31T13:15:03;41.20;;;4.97;;
63801;SDS011;49949;43.060;25.624;2023-07-31T13:17:29;38.83;;;5.28;;
63801;SDS011;49949;43.060;25.624;2023-07-31T13:19:55;20.15;;;5.13;;
63801;SDS011;49949;43.060;25.624;2023-07-31T13:22:21;8.13;;;3.72;;
63801;SDS011;49949;43.060;25.624;2023-07-31T13:24:46;8.98;;;3.60;;
63801;SDS011;49949;43.060;25.624;2023-07-31T13:27:12;22.77;;;4.90;;
63801;SDS011;49949;43.060;25.624;2023-07-31T13:29:38;29.13;;;4.00;;
63801;SDS011;49949;43.060;25.624;2023-07-31T13:32:04;39.40;;;4.72;;
63801;SDS011;49949;43.060;25.624;2023-07-31T13:34:30;16.92;;;3.58;;
63801;SDS011;49949;43.060;25.624;2023-07-31T13:36:56;13.15;;;3.60;;
63801;SDS011;49949;43.060;25.624;2023-07-31T13:39:21;17.85;;;3.83;;
63801;SDS011;49949;43.060;25.624;2023-07-31T13:41:47;19.75;;;4.43;;
63801;SDS011;49949;43.060;25.624;2023-07-31T13:44:14;27.75;;;4.50;;
63801;SDS011;49949;43.060;25.624;2023-07-31T13:46:40;8.82;;;4.13;;
63801;SDS011;49949;43.060;25.624;2023-07-31T13:49:05;10.80;;;4.28;;
63801;SDS011;49949;43.060;25.624;2023-07-31T13:51:31;24.60;;;4.07;;
63801;SDS011;49949;43.060;25.624;2023-07-31T13:53:57;24.15;;;4.30;;
63801;SDS011;49949;43.060;25.624;2023-07-31T13:56:22;7.70;;;4.13;;
63801;SDS011;49949;43.060;25.624;2023-07-31T13:58:48;13.90;;;5.28;;
63801;SDS011;49949;43.060;25.624;2023-07-31T14:01:14;7.97;;;3.70;;
63801;SDS011;49949;43.060;25.624;2023-07-31T14:03:40;15.77;;;3.85;;
63801;SDS011;49949;43.060;25.624;2023-07-31T14:06:05;5.32;;;3.75;;
63801;SDS011;49949;43.060;25.624;2023-07-31T14:08:31;9.73;;;4.18;;
63801;SDS011;49949;43.060;25.624;2023-07-31T14:11:00;12.18;;;4.28;;
63801;SDS011;49949;43.060;25.624;2023-07-31T14:13:25;5.55;;;3.92;;
63801;SDS011;49949;43.060;25.624;2023-07-31T14:15:51;9.35;;;4.03;;
63801;SDS011;49949;43.060;25.624;2023-07-31T14:18:18;7.85;;;4.15;;
63801;SDS011;49949;43.060;25.624;2023-07-31T14:20:44;6.10;;;3.90;;
63801;SDS011;49949;43.060;25.624;2023-07-31T14:23:09;8.95;;;3.90;;
63801;SDS011;49949;43.060;25.624;2023-07-31T14:25:35;18.20;;;4.53;;
63801;SDS011;49949;43.060;25.624;2023-07-31T14:28:00;9.48;;;4.00;;
63801;SDS011;49949;43.060;25.624;2023-07-31T14:30:26;19.05;;;4.82;;
63801;SDS011;49949;43.060;25.624;2023-07-31T14:32:52;5.30;;;4.25;;
63801;SDS011;49949;43.060;25.624;2023-07-31T14:35:18;4.88;;;4.22;;
63801;SDS011;49949;43.060;25.624;2023-07-31T14:37:44;8.73;;;4.50;;
63801;SDS011;49949;43.060;25.624;2023-07-31T14:40:10;4.63;;;4.20;;
63801;SDS011;49949;43.060;25.624;2023-07-31T14:42:37;5.18;;;4.40;;